Time;durP1;ratioP1;P1;durP2;ratioP2;P2;SDS_P1;SDS_P2;PMS_P1;PMS_P2;Temp;Humidity;BMP_temperature;BMP_pressure;BME280_temperature;BME280_humidity;BME280_pressure;Samples;Min_cycle;Max_cycle;Signal;HPM_P1;HPM_P2
2023/08/12 00:01:46;;;;;;;;;;;20.40;61.80;;;;;;4214908;28;19916;-84
2023/08/12 00:03:48;;;;;;;;;;;20.40;61.80;;;;;;4201681;28;19916;-84
2023/08/12 00:05:48;;;;;;;;;;;20.30;61.80;;;;;;4204583;28;19912;-84
2023/08/12 00:07:50;;;;;;;;;;;20.30;61.90;;;;;;4202236;28;19920;-84
2023/08/12 00:09:50;;;;;;;;;;;20.30;61.90;;;;;;4204170;28;20349;-84
2023/08/12 00:11:54;;;;;;;;;;;20.30;62.00;;;;;;4201631;28;19913;-84
2023/08/12 00:14:14;;;;;;;;;;;20.30;62.10;;;;;;4206049;28;19909;-84
2023/08/12 00:16:35;;;;;;;;;;;20.20;62.10;;;;;;4207271;28;19947;-85
2023/08/12 00:18:55;;;;;;;;;;;20.20;62.10;;;;;;4203314;28;19912;-84
2023/08/12 00:21:16;;;;;;;;;;;20.20;62.10;;;;;;4204397;28;19916;-84
2023/08/12 00:23:38;;;;;;;;;;;20.20;62.10;;;;;;4203261;28;19921;-84
2023/08/12 00:25:58;;;;;;;;;;;20.20;62.60;;;;;;4198581;28;19916;-85
2023/08/12 00:28:19;;;;;;;;;;;20.20;62.80;;;;;;4201274;28;19951;-84
2023/08/12 00:30:40;;;;;;;;;;;20.20;63.40;;;;;;4202045;28;19916;-84
2023/08/12 00:33:00;;;;;;;;;;;20.10;64.10;;;;;;4202546;28;20980;-84
2023/08/12 00:35:01;;;;;;;;;;;20.20;64.50;;;;;;4200322;28;19927;-84
2023/08/12 00:37:01;;;;;;;;;;;20.10;64.30;;;;;;4203884;28;20395;-84
2023/08/12 00:39:03;;;;;;;;;;;20.10;64.60;;;;;;4201610;28;20353;-84
2023/08/12 00:41:04;;;;;;;;;;;20.10;64.40;;;;;;4203972;28;19936;-84
2023/08/12 00:43:05;;;;;;;;;;;20.10;64.40;;;;;;4204876;28;19908;-84
2023/08/12 00:45:12;;;;;;;;;;;20.10;64.30;;;;;;4203563;28;20565;-85
2023/08/12 00:47:13;;;;;;;;;;;20.10;64.30;;;;;;4202541;28;19931;-84
2023/08/12 00:49:32;;;;;;;;;;;20.10;65.10;;;;;;4206336;28;19920;-84
2023/08/12 00:51:37;;;;;;;;;;;20.10;65.70;;;;;;4207375;28;19907;-85
2023/08/12 00:53:58;;;;;;;;;;;20.10;65.10;;;;;;4224461;28;19999;-84
2023/08/12 00:56:19;;;;;;;;;;;20.10;65.00;;;;;;4205106;28;19901;-85
2023/08/12 00:58:20;;;;;;;;;;;20.10;64.90;;;;;;4202623;28;19919;-84
2023/08/12 01:00:24;;;;;;;;;;;20.10;65.70;;;;;;4204573;28;19912;-85
2023/08/12 01:02:47;;;;;;;;;;;20.00;65.40;;;;;;4204015;28;19939;-85
2023/08/12 01:05:08;;;;;;;;;;;20.00;65.20;;;;;;4203812;28;19930;-84
2023/08/12 01:09:29;;;;;;;;;;;20.00;65.70;;;;;;4184999;28;19936;-88
2023/08/12 01:11:55;;;;;;;;;;;20.00;66.30;;;;;;4188371;28;19916;-87
2023/08/12 01:14:22;;;;;;;;;;;19.90;66.30;;;;;;4188608;28;20535;-87
2023/08/12 01:16:49;;;;;;;;;;;20.00;66.30;;;;;;4188269;28;19921;-88
2023/08/12 01:19:10;;;;;;;;;;;19.90;65.70;;;;;;4187169;28;20026;-88
2023/08/12 01:21:32;;;;;;;;;;;20.00;65.90;;;;;;4189773;28;19912;-87
2023/08/12 01:23:53;;;;;;;;;;;19.90;65.90;;;;;;4193426;28;19917;-88
2023/08/12 01:26:13;;;;;;;;;;;19.90;65.90;;;;;;4188230;28;20055;-86
2023/08/12 01:28:34;;;;;;;;;;;19.90;66.20;;;;;;4188646;28;20012;-86
2023/08/12 01:31:05;;;;;;;;;;;19.90;66.20;;;;;;4186888;28;19971;-88
2023/08/12 01:33:19;;;;;;;;;;;19.90;66.40;;;;;;4188320;28;19917;-86
2023/08/12 01:35:28;;;;;;;;;;;19.90;66.60;;;;;;4188344;28;20306;-87
2023/08/12 01:37:29;;;;;;;;;;;19.80;66.50;;;;;;4186156;28;19952;-88
2023/08/12 01:39:30;;;;;;;;;;;19.90;66.70;;;;;;4189418;28;19919;-88
2023/08/12 01:41:31;;;;;;;;;;;19.80;66.60;;;;;;4185585;28;19925;-88
2023/08/12 01:43:32;;;;;;;;;;;19.80;66.60;;;;;;4187134;28;19912;-87
2023/08/12 01:45:32;;;;;;;;;;;19.80;66.70;;;;;;4186529;28;19923;-88
2023/08/12 01:47:33;;;;;;;;;;;19.80;66.70;;;;;;4187013;28;19913;-88
2023/08/12 01:49:34;;;;;;;;;;;19.70;66.80;;;;;;4187312;28;19932;-88
2023/08/12 01:51:34;;;;;;;;;;;19.80;66.90;;;;;;4183813;28;19921;-86
2023/08/12 01:53:35;;;;;;;;;;;19.80;66.90;;;;;;4188292;28;19918;-87
2023/08/12 01:55:35;;;;;;;;;;;19.80;66.60;;;;;;4183714;28;19980;-88
2023/08/12 01:57:36;;;;;;;;;;;19.70;66.80;;;;;;4186070;28;19916;-88
2023/08/12 01:59:37;;;;;;;;;;;19.70;67.00;;;;;;4188557;28;19939;-88
2023/08/12 02:01:37;;;;;;;;;;;19.70;67.00;;;;;;4184966;28;20371;-88
2023/08/12 02:03:38;;;;;;;;;;;19.70;67.10;;;;;;4193941;28;20405;-88
2023/08/12 02:05:40;;;;;;;;;;;19.60;67.00;;;;;;4184900;28;19999;-88
2023/08/12 02:07:41;;;;;;;;;;;19.60;67.00;;;;;;4189479;28;19919;-87
2023/08/12 02:09:42;;;;;;;;;;;19.60;67.00;;;;;;4192426;28;19924;-88
2023/08/12 02:11:43;;;;;;;;;;;19.60;66.70;;;;;;4191066;28;20606;-87
2023/08/12 02:13:43;;;;;;;;;;;19.60;66.40;;;;;;4186477;28;20420;-87
2023/08/12 02:15:44;;;;;;;;;;;19.60;66.90;;;;;;4186249;28;20379;-87
2023/08/12 02:17:44;;;;;;;;;;;19.50;66.80;;;;;;4188883;28;19913;-87
2023/08/12 02:19:45;;;;;;;;;;;19.50;67.10;;;;;;4185192;28;19916;-87
2023/08/12 02:21:45;;;;;;;;;;;19.50;67.50;;;;;;4185204;28;20594;-88
2023/08/12 02:23:46;;;;;;;;;;;19.40;67.50;;;;;;4187711;28;19909;-88
2023/08/12 02:25:47;;;;;;;;;;;19.50;67.50;;;;;;4187801;28;19913;-88
2023/08/12 02:27:47;;;;;;;;;;;19.40;67.50;;;;;;4185393;28;20493;-88
2023/08/12 02:29:48;;;;;;;;;;;19.40;67.60;;;;;;4190769;28;19927;-88
2023/08/12 02:31:48;;;;;;;;;;;19.40;67.40;;;;;;4186443;28;20393;-89
2023/08/12 02:33:50;;;;;;;;;;;19.40;67.50;;;;;;4189169;28;19963;-88
2023/08/12 02:35:52;;;;;;;;;;;19.30;67.60;;;;;;4188143;28;19962;-88
2023/08/12 02:37:57;;;;;;;;;;;19.30;67.60;;;;;;4175525;28;20321;-88
2023/08/12 02:39:58;;;;;;;;;;;19.30;67.80;;;;;;4188618;28;19917;-88
2023/08/12 02:42:19;;;;;;;;;;;19.30;67.80;;;;;;4191206;28;19970;-87
2023/08/12 02:44:19;;;;;;;;;;;19.30;67.80;;;;;;4190708;28;20446;-87
2023/08/12 02:46:40;;;;;;;;;;;19.30;67.90;;;;;;4188515;28;19920;-87
2023/08/12 02:49:00;;;;;;;;;;;19.20;67.90;;;;;;4190396;28;19908;-87
2023/08/12 02:51:21;;;;;;;;;;;19.30;68.00;;;;;;4187707;28;19920;-87
2023/08/12 02:53:41;;;;;;;;;;;19.20;67.90;;;;;;4185707;28;19949;-88
2023/08/12 02:56:02;;;;;;;;;;;19.20;67.90;;;;;;4187173;28;19912;-87
2023/08/12 02:58:22;;;;;;;;;;;19.20;67.90;;;;;;4186566;28;19962;-87
2023/08/12 03:00:46;;;;;;;;;;;19.20;68.00;;;;;;4187927;28;19920;-88
2023/08/12 03:03:06;;;;;;;;;;;19.20;68.00;;;;;;4188804;28;19935;-87
2023/08/12 03:05:27;;;;;;;;;;;19.20;68.10;;;;;;4185541;28;19919;-87
2023/08/12 03:07:47;;;;;;;;;;;19.20;68.10;;;;;;4186105;28;19923;-88
2023/08/12 03:09:49;;;;;;;;;;;19.20;68.20;;;;;;4204003;28;19916;-87
2023/08/12 03:12:09;;;;;;;;;;;19.20;68.20;;;;;;4187428;28;19920;-87
2023/08/12 03:14:31;;;;;;;;;;;19.20;68.00;;;;;;4186792;28;19995;-88
2023/08/12 03:16:32;;;;;;;;;;;19.10;67.80;;;;;;4185849;28;19948;-88
2023/08/12 03:18:52;;;;;;;;;;;19.20;68.20;;;;;;4188348;28;19916;-88
2023/08/12 03:21:13;;;;;;;;;;;19.10;68.00;;;;;;4184389;28;20008;-87
2023/08/12 03:23:35;;;;;;;;;;;19.10;68.70;;;;;;4186844;28;20599;-88
2023/08/12 03:25:55;;;;;;;;;;;19.10;68.70;;;;;;4189523;28;19923;-88
2023/08/12 03:28:16;;;;;;;;;;;19.10;68.60;;;;;;4187040;28;19924;-88
2023/08/12 03:30:36;;;;;;;;;;;19.10;68.50;;;;;;4188063;28;19916;-88
2023/08/12 03:32:57;;;;;;;;;;;19.10;68.70;;;;;;4184158;28;19920;-88
2023/08/12 03:35:18;;;;;;;;;;;19.10;68.80;;;;;;4185270;28;20007;-87
2023/08/12 03:37:38;;;;;;;;;;;19.10;68.80;;;;;;4184042;28;19971;-88
2023/08/12 03:39:59;;;;;;;;;;;19.10;68.90;;;;;;4188546;28;20010;-88
2023/08/12 03:41:59;;;;;;;;;;;19.10;68.70;;;;;;4188334;28;20423;-88
2023/08/12 03:44:00;;;;;;;;;;;19.10;68.60;;;;;;4184050;28;19917;-88
2023/08/12 03:46:00;;;;;;;;;;;19.10;68.70;;;;;;4182196;28;19960;-88
2023/08/12 03:48:01;;;;;;;;;;;19.10;68.90;;;;;;4184124;28;20404;-88
2023/08/12 03:50:02;;;;;;;;;;;19.10;70.10;;;;;;4183449;28;20481;-88
2023/08/12 03:52:03;;;;;;;;;;;19.00;70.00;;;;;;4173695;28;19913;-88
2023/08/12 03:54:03;;;;;;;;;;;19.10;70.10;;;;;;4182683;28;19912;-88
2023/08/12 03:56:04;;;;;;;;;;;19.10;70.50;;;;;;4188286;28;20374;-88
2023/08/12 03:58:05;;;;;;;;;;;19.00;69.80;;;;;;4185679;28;20361;-86
2023/08/12 04:00:07;;;;;;;;;;;19.10;69.70;;;;;;4174752;28;19917;-87
2023/08/12 04:02:09;;;;;;;;;;;19.00;70.10;;;;;;4181731;28;19913;-87
2023/08/12 04:04:29;;;;;;;;;;;19.00;70.10;;;;;;4185255;28;19913;-85
2023/08/12 04:06:53;;;;;;;;;;;19.00;70.10;;;;;;4185023;28;19924;-87
2023/08/12 04:09:13;;;;;;;;;;;19.00;70.10;;;;;;4188248;28;20015;-88
2023/08/12 04:11:34;;;;;;;;;;;19.00;70.00;;;;;;4185592;28;19947;-88
2023/08/12 04:13:54;;;;;;;;;;;19.00;70.80;;;;;;4182550;28;19924;-87
2023/08/12 04:16:15;;;;;;;;;;;19.00;70.00;;;;;;4183509;28;19920;-87
2023/08/12 04:18:35;;;;;;;;;;;19.00;70.70;;;;;;4184160;28;19917;-86
2023/08/12 04:20:57;;;;;;;;;;;19.00;70.40;;;;;;4187407;28;19924;-87
2023/08/12 04:23:18;;;;;;;;;;;19.00;70.30;;;;;;4188432;28;19912;-88
2023/08/12 04:25:38;;;;;;;;;;;18.90;70.10;;;;;;4185493;28;19909;-87
2023/08/12 04:27:59;;;;;;;;;;;18.90;69.80;;;;;;4182583;28;20012;-87
2023/08/12 04:30:19;;;;;;;;;;;18.90;71.50;;;;;;4185020;28;20006;-87
2023/08/12 04:32:40;;;;;;;;;;;18.90;71.70;;;;;;4185818;28;19952;-88
2023/08/12 04:34:47;;;;;;;;;;;18.90;71.80;;;;;;4187502;28;19912;-87
2023/08/12 04:36:47;;;;;;;;;;;18.90;71.10;;;;;;4189919;28;19962;-87
2023/08/12 04:38:48;;;;;;;;;;;18.90;71.20;;;;;;4193035;28;19967;-87
2023/08/12 04:41:08;;;;;;;;;;;18.90;72.10;;;;;;4189539;28;19963;-87
2023/08/12 04:43:11;;;;;;;;;;;18.80;71.10;;;;;;4188588;28;19935;-87
2023/08/12 04:45:11;;;;;;;;;;;18.90;71.10;;;;;;4190816;28;19913;-87
2023/08/12 04:47:32;;;;;;;;;;;18.80;71.00;;;;;;4190204;28;19908;-88
2023/08/12 04:49:52;;;;;;;;;;;18.90;71.00;;;;;;4187099;28;19916;-88
2023/08/12 04:52:13;;;;;;;;;;;18.80;71.00;;;;;;4188385;28;19966;-88
2023/08/12 04:54:34;;;;;;;;;;;18.80;71.10;;;;;;4192296;28;19908;-87
2023/08/12 04:56:56;;;;;;;;;;;18.80;71.00;;;;;;4191450;28;19966;-88
2023/08/12 04:59:16;;;;;;;;;;;18.80;71.00;;;;;;4189576;28;19913;-86
2023/08/12 05:01:37;;;;;;;;;;;18.80;71.10;;;;;;4190123;28;19912;-88
2023/08/12 05:03:57;;;;;;;;;;;18.80;71.10;;;;;;4187467;28;19912;-88
2023/08/12 05:06:18;;;;;;;;;;;18.80;70.90;;;;;;4193810;28;19912;-88
2023/08/12 05:08:38;;;;;;;;;;;18.80;71.20;;;;;;4188555;28;19970;-87
2023/08/12 05:10:39;;;;;;;;;;;18.80;71.40;;;;;;4193466;28;19928;-87
2023/08/12 05:12:39;;;;;;;;;;;18.80;71.40;;;;;;4188794;28;19955;-87
2023/08/12 05:14:40;;;;;;;;;;;18.80;71.50;;;;;;4189032;28;20342;-88
2023/08/12 05:16:41;;;;;;;;;;;18.80;71.50;;;;;;4187139;28;19913;-87
2023/08/12 05:18:41;;;;;;;;;;;18.80;71.50;;;;;;4190059;28;20439;-86
2023/08/12 05:20:42;;;;;;;;;;;18.80;71.50;;;;;;4186855;28;19913;-87
2023/08/12 05:23:03;;;;;;;;;;;18.90;71.40;;;;;;4187209;28;19935;-87
2023/08/12 05:25:23;;;;;;;;;;;18.80;72.10;;;;;;4185627;28;19956;-88
2023/08/12 05:27:26;;;;;;;;;;;18.80;71.90;;;;;;4187029;28;20003;-87
2023/08/12 05:29:46;;;;;;;;;;;18.80;71.90;;;;;;4189919;28;20015;-88
2023/08/12 05:32:07;;;;;;;;;;;18.80;71.90;;;;;;4189488;28;19916;-88
2023/08/12 05:34:27;;;;;;;;;;;18.80;72.00;;;;;;4185529;28;19924;-88
2023/08/12 05:36:48;;;;;;;;;;;18.90;71.60;;;;;;4187035;28;19975;-89
2023/08/12 05:39:08;;;;;;;;;;;18.90;71.60;;;;;;4189451;28;19966;-88
2023/08/12 05:41:29;;;;;;;;;;;18.80;71.90;;;;;;4188185;28;19920;-89
2023/08/12 05:43:49;;;;;;;;;;;18.80;72.50;;;;;;4185757;28;19917;-88
2023/08/12 05:46:10;;;;;;;;;;;18.90;72.90;;;;;;4187030;28;19912;-88
2023/08/12 05:48:10;;;;;;;;;;;18.90;72.70;;;;;;4185403;28;20022;-88
2023/08/12 05:50:11;;;;;;;;;;;18.90;72.60;;;;;;4184276;28;20341;-87
2023/08/12 05:52:11;;;;;;;;;;;18.90;72.20;;;;;;4190443;28;20579;-88
2023/08/12 05:54:12;;;;;;;;;;;18.90;71.90;;;;;;4188801;28;19912;-88
2023/08/12 05:56:13;;;;;;;;;;;18.90;72.00;;;;;;4189314;28;20305;-88
2023/08/12 05:58:13;;;;;;;;;;;18.90;71.80;;;;;;4186558;28;19920;-87
2023/08/12 06:00:14;;;;;;;;;;;18.90;72.50;;;;;;4187209;28;19919;-88
2023/08/12 06:02:14;;;;;;;;;;;18.90;72.30;;;;;;4184461;28;19917;-88
2023/08/12 06:04:15;;;;;;;;;;;18.90;71.90;;;;;;4187612;28;19916;-89
2023/08/12 06:06:16;;;;;;;;;;;18.90;72.00;;;;;;4187451;28;19916;-88
2023/08/12 06:08:17;;;;;;;;;;;18.90;71.70;;;;;;4192288;28;20329;-87
2023/08/12 06:10:19;;;;;;;;;;;19.00;72.10;;;;;;4189876;28;19958;-87
2023/08/12 06:12:20;;;;;;;;;;;19.00;72.50;;;;;;4170163;28;19920;-88
2023/08/12 06:14:20;;;;;;;;;;;19.00;72.50;;;;;;4187857;28;19916;-88
2023/08/12 06:16:39;;;;;;;;;;;19.00;72.40;;;;;;4187149;28;19923;-88
2023/08/12 06:18:39;;;;;;;;;;;19.00;72.50;;;;;;4188317;28;20367;-88
2023/08/12 06:20:40;;;;;;;;;;;19.10;72.30;;;;;;4184569;28;20611;-88
2023/08/12 06:22:41;;;;;;;;;;;19.10;72.60;;;;;;4187873;28;19909;-88
2023/08/12 06:24:42;;;;;;;;;;;19.10;72.70;;;;;;4189831;28;20631;-88
2023/08/12 06:26:42;;;;;;;;;;;19.10;72.90;;;;;;4185419;28;20610;-88
2023/08/12 06:28:49;;;;;;;;;;;19.10;73.10;;;;;;4184337;28;20003;-88
2023/08/12 06:31:09;;;;;;;;;;;19.10;73.10;;;;;;4186527;28;19917;-87
2023/08/12 06:33:15;;;;;;;;;;;19.20;73.10;;;;;;4187194;28;19908;-89
2023/08/12 06:35:35;;;;;;;;;;;19.20;73.20;;;;;;4184385;28;19909;-88
2023/08/12 06:37:56;;;;;;;;;;;19.20;73.00;;;;;;4191172;28;19913;-89
2023/08/12 06:40:17;;;;;;;;;;;19.30;73.10;;;;;;4188058;28;20206;-88
2023/08/12 06:42:37;;;;;;;;;;;19.30;73.60;;;;;;4189255;28;19999;-89
2023/08/12 06:44:58;;;;;;;;;;;19.30;73.40;;;;;;4187185;28;19947;-89
2023/08/12 06:47:19;;;;;;;;;;;19.30;73.40;;;;;;4187524;28;19967;-89
2023/08/12 06:49:39;;;;;;;;;;;19.30;73.20;;;;;;4184655;28;21572;-88
2023/08/12 06:51:42;;;;;;;;;;;19.40;73.40;;;;;;4186630;28;19909;-88
2023/08/12 06:53:44;;;;;;;;;;;19.40;73.90;;;;;;4188263;28;20394;-88
2023/08/12 06:55:45;;;;;;;;;;;19.40;73.70;;;;;;4189094;28;19909;-88
2023/08/12 06:57:46;;;;;;;;;;;19.40;73.60;;;;;;4185537;28;19999;-88
2023/08/12 06:59:46;;;;;;;;;;;19.40;73.60;;;;;;4184005;28;19919;-86
2023/08/12 07:01:47;;;;;;;;;;;19.50;73.60;;;;;;4185260;28;19923;-86
2023/08/12 07:03:47;;;;;;;;;;;19.40;74.50;;;;;;4188035;28;19996;-88
2023/08/12 07:05:56;;;;;;;;;;;19.40;73.80;;;;;;4183583;28;20004;-88
2023/08/12 07:08:09;;;;;;;;;;;19.50;73.90;;;;;;4222763;22;20296;-85
2023/08/12 07:10:12;;;;;;;;;;;19.50;74.10;;;;;;4122074;28;20424;-85
2023/08/12 07:12:33;;;;;;;;;;;19.60;74.00;;;;;;4151488;28;19917;-85
2023/08/12 07:14:53;;;;;;;;;;;19.60;75.00;;;;;;4157180;28;19913;-85
2023/08/12 07:17:14;;;;;;;;;;;19.60;74.80;;;;;;4153562;28;19913;-85
2023/08/12 07:19:34;;;;;;;;;;;19.70;74.30;;;;;;4155060;28;20003;-85
2023/08/12 07:21:55;;;;;;;;;;;19.80;74.70;;;;;;4151655;28;19959;-84
2023/08/12 07:24:15;;;;;;;;;;;19.80;74.30;;;;;;4156548;28;19971;-85
2023/08/12 07:26:36;;;;;;;;;;;19.90;74.50;;;;;;4156282;28;19916;-85
2023/08/12 07:28:56;;;;;;;;;;;20.10;75.10;;;;;;4157323;28;19920;-85
2023/08/12 07:31:17;;;;;;;;;;;20.00;75.40;;;;;;4152551;28;19921;-85
2023/08/12 07:33:38;;;;;;;;;;;20.10;75.40;;;;;;4154957;28;19913;-84
2023/08/12 07:35:58;;;;;;;;;;;20.20;75.70;;;;;;4154924;28;19913;-85
2023/08/12 07:38:19;;;;;;;;;;;20.20;75.80;;;;;;4142220;28;19971;-85
2023/08/12 07:40:40;;;;;;;;;;;20.30;76.50;;;;;;4154780;28;20046;-85
2023/08/12 07:43:01;;;;;;;;;;;20.30;76.10;;;;;;4155812;28;19920;-84
2023/08/12 07:45:21;;;;;;;;;;;20.30;76.20;;;;;;4152588;28;19913;-85
2023/08/12 07:47:42;;;;;;;;;;;20.40;76.60;;;;;;4152511;28;19918;-85
2023/08/12 07:50:03;;;;;;;;;;;20.40;76.30;;;;;;4145904;28;19917;-85
2023/08/12 07:52:23;;;;;;;;;;;20.50;75.50;;;;;;4153760;28;19963;-84
2023/08/12 07:54:44;;;;;;;;;;;20.60;75.60;;;;;;4142348;28;20004;-84
2023/08/12 07:57:04;;;;;;;;;;;20.60;75.50;;;;;;4139830;28;20009;-85
2023/08/12 07:59:25;;;;;;;;;;;20.60;76.00;;;;;;4141539;28;19941;-84
2023/08/12 08:01:30;;;;;;;;;;;20.60;76.40;;;;;;4126573;28;19952;-85
2023/08/12 08:03:31;;;;;;;;;;;20.70;76.10;;;;;;4155121;28;19913;-85
2023/08/12 08:05:31;;;;;;;;;;;20.70;75.90;;;;;;4135694;28;19921;-85
2023/08/12 08:07:32;;;;;;;;;;;20.70;75.80;;;;;;4151594;28;19944;-85
2023/08/12 08:09:33;;;;;;;;;;;20.70;75.90;;;;;;4156984;28;20037;-84
2023/08/12 08:11:34;;;;;;;;;;;20.80;76.20;;;;;;4136669;28;20000;-85
2023/08/12 08:13:34;;;;;;;;;;;20.90;76.10;;;;;;4157070;28;19921;-84
2023/08/12 08:15:35;;;;;;;;;;;20.90;75.80;;;;;;4157901;28;19921;-85
2023/08/12 08:17:36;;;;;;;;;;;21.00;75.70;;;;;;4159315;28;20454;-84
2023/08/12 08:19:36;;;;;;;;;;;21.00;75.30;;;;;;4154018;28;20015;-84
2023/08/12 08:21:37;;;;;;;;;;;21.10;75.30;;;;;;4143021;28;19909;-85
2023/08/12 08:23:40;;;;;;;;;;;21.20;75.40;;;;;;4126720;28;19918;-84
2023/08/12 08:25:52;;;;;;;;;;;21.30;76.70;;;;;;4138298;28;19940;-85
2023/08/12 08:27:53;;;;;;;;;;;21.40;76.50;;;;;;4158064;28;19949;-85
2023/08/12 08:30:13;;;;;;;;;;;21.40;76.80;;;;;;4158526;28;19918;-85
2023/08/12 08:32:34;;;;;;;;;;;21.50;76.50;;;;;;4159630;28;19909;-84
2023/08/12 08:34:55;;;;;;;;;;;21.60;76.60;;;;;;4155667;28;19918;-85
2023/08/12 08:37:15;;;;;;;;;;;21.80;75.90;;;;;;4158762;28;19967;-84
2023/08/12 08:39:36;;;;;;;;;;;21.80;75.20;;;;;;4143244;28;19955;-85
2023/08/12 08:41:57;;;;;;;;;;;21.90;74.70;;;;;;4145703;28;19959;-85
2023/08/12 08:44:10;;;;;;;;;;;21.90;74.30;;;;;;4126843;28;20019;-84
2023/08/12 08:46:31;;;;;;;;;;;22.00;73.80;;;;;;4158984;28;19920;-84
2023/08/12 08:48:51;;;;;;;;;;;22.10;73.50;;;;;;4147586;28;19980;-84
2023/08/12 08:51:12;;;;;;;;;;;22.10;73.20;;;;;;4147605;28;19914;-84
2023/08/12 08:53:34;;;;;;;;;;;22.20;72.80;;;;;;4161538;28;19914;-84
2023/08/12 08:55:55;;;;;;;;;;;22.20;72.60;;;;;;4149044;28;19909;-85
2023/08/12 08:58:16;;;;;;;;;;;22.30;72.60;;;;;;4145586;28;19928;-84
2023/08/12 09:00:37;;;;;;;;;;;22.30;72.60;;;;;;4161055;28;19921;-84
2023/08/12 09:02:58;;;;;;;;;;;22.30;72.30;;;;;;4158623;28;19914;-84
2023/08/12 09:05:20;;;;;;;;;;;22.40;72.20;;;;;;4163693;28;19925;-84
2023/08/12 09:07:41;;;;;;;;;;;22.50;72.70;;;;;;4148464;28;19967;-85
2023/08/12 09:10:03;;;;;;;;;;;22.50;71.40;;;;;;4141485;28;20085;-85
2023/08/12 09:12:24;;;;;;;;;;;22.60;71.00;;;;;;4156399;28;19915;-85
2023/08/12 09:14:44;;;;;;;;;;;22.60;70.40;;;;;;4155611;28;19913;-84
2023/08/12 09:17:05;;;;;;;;;;;22.70;70.30;;;;;;4147544;28;19913;-84
2023/08/12 09:19:26;;;;;;;;;;;22.80;70.40;;;;;;4143567;28;20004;-85
2023/08/12 09:21:53;;;;;;;;;;;22.80;70.10;;;;;;4157171;28;19972;-86
2023/08/12 09:24:14;;;;;;;;;;;22.90;70.10;;;;;;4143956;28;19976;-85
2023/08/12 09:26:34;;;;;;;;;;;22.90;68.90;;;;;;4157627;28;19916;-84
2023/08/12 09:28:36;;;;;;;;;;;23.00;68.80;;;;;;4156615;28;19949;-84
2023/08/12 09:30:37;;;;;;;;;;;23.00;68.40;;;;;;4156938;28;19921;-84
2023/08/12 09:32:38;;;;;;;;;;;23.10;68.70;;;;;;4141267;28;19920;-85
2023/08/12 09:35:01;;;;;;;;;;;23.10;68.70;;;;;;4143735;28;19916;-84
2023/08/12 09:37:23;;;;;;;;;;;23.20;68.90;;;;;;4157658;28;19924;-85
2023/08/12 09:39:44;;;;;;;;;;;23.30;67.90;;;;;;4147234;28;20044;-85
2023/08/12 09:41:45;;;;;;;;;;;23.30;67.40;;;;;;4157682;28;19913;-85
2023/08/12 09:44:05;;;;;;;;;;;23.40;67.20;;;;;;4145926;28;19914;-84
2023/08/12 09:46:26;;;;;;;;;;;23.40;66.20;;;;;;4157677;28;19917;-84
2023/08/12 09:48:46;;;;;;;;;;;23.50;65.40;;;;;;4158803;28;19995;-85
2023/08/12 09:50:54;;;;;;;;;;;23.60;65.80;;;;;;4162351;28;20674;-85
2023/08/12 09:53:08;;;;;;;;;;;23.60;65.50;;;;;;4143996;28;19913;-85
2023/08/12 09:55:31;;;;;;;;;;;23.70;66.60;;;;;;4159648;28;19913;-85
2023/08/12 09:57:52;;;;;;;;;;;23.70;66.60;;;;;;4158548;28;19924;-84
2023/08/12 10:00:16;;;;;;;;;;;23.90;66.90;;;;;;4143030;28;19918;-85
2023/08/12 10:02:38;;;;;;;;;;;23.90;67.00;;;;;;4155250;28;19913;-85
2023/08/12 10:05:03;;;;;;;;;;;24.00;66.50;;;;;;4156244;28;19957;-85
2023/08/12 10:07:24;;;;;;;;;;;24.10;66.40;;;;;;4155090;28;19967;-85
2023/08/12 10:09:45;;;;;;;;;;;24.20;65.60;;;;;;4153812;28;19917;-85
2023/08/12 10:12:06;;;;;;;;;;;24.20;64.80;;;;;;4146582;28;19917;-85
2023/08/12 10:14:28;;;;;;;;;;;24.30;64.60;;;;;;4153042;28;19945;-85
2023/08/12 10:16:29;;;;;;;;;;;24.40;64.50;;;;;;4155350;28;19909;-85
2023/08/12 10:18:30;;;;;;;;;;;24.40;64.60;;;;;;4123767;28;19918;-85
2023/08/12 10:20:31;;;;;;;;;;;24.50;64.20;;;;;;4148362;28;19913;-85
2023/08/12 10:22:32;;;;;;;;;;;24.60;64.70;;;;;;4144045;28;19909;-85
2023/08/12 10:24:33;;;;;;;;;;;24.60;64.80;;;;;;4155058;28;19913;-85
2023/08/12 10:26:34;;;;;;;;;;;24.70;64.20;;;;;;4161772;28;19920;-86
2023/08/12 10:28:37;;;;;;;;;;;24.70;64.30;;;;;;4127661;28;20012;-85
2023/08/12 10:30:39;;;;;;;;;;;24.80;63.60;;;;;;4154654;28;20429;-85
2023/08/12 10:32:42;;;;;;;;;;;24.80;63.50;;;;;;4136803;28;20365;-85
2023/08/12 10:35:02;;;;;;;;;;;24.80;63.60;;;;;;4153376;28;19921;-85
2023/08/12 10:37:24;;;;;;;;;;;24.80;63.60;;;;;;4156279;28;19917;-86
2023/08/12 10:39:45;;;;;;;;;;;24.90;63.90;;;;;;4141427;28;19960;-85
2023/08/12 10:41:57;;;;;;;;;;;24.90;62.70;;;;;;4157071;28;19909;-85
2023/08/12 10:44:19;;;;;;;;;;;24.90;62.90;;;;;;4155060;28;19910;-84
2023/08/12 10:46:40;;;;;;;;;;;24.90;62.00;;;;;;4153406;28;20043;-85
2023/08/12 10:49:04;;;;;;;;;;;24.90;61.80;;;;;;4151242;28;19979;-85
2023/08/12 10:51:43;;;;;;;;;;;24.90;62.40;;;;;;4146121;28;19921;-85
2023/08/12 10:54:30;;;;;;;;;;;24.90;62.70;;;;;;4152166;28;19948;-85
2023/08/12 10:57:03;;;;;;;;;;;24.80;63.00;;;;;;4158070;28;19920;-85
2023/08/12 10:59:42;;;;;;;;;;;24.80;62.80;;;;;;4155297;28;19959;-85
2023/08/12 11:02:08;;;;;;;;;;;24.80;63.10;;;;;;4155569;28;19914;-85
2023/08/12 11:04:35;;;;;;;;;;;24.80;62.30;;;;;;4144018;28;19914;-85
2023/08/12 11:06:56;;;;;;;;;;;24.80;63.30;;;;;;4154541;28;19929;-85
2023/08/12 11:08:58;;;;;;;;;;;24.80;63.40;;;;;;4155126;28;19996;-85
2023/08/12 11:11:01;;;;;;;;;;;24.80;63.50;;;;;;4153358;28;19913;-85
2023/08/12 11:13:02;;;;;;;;;;;24.80;63.30;;;;;;4158551;28;19976;-86
2023/08/12 11:15:06;;;;;;;;;;;24.80;62.50;;;;;;4144671;28;20295;-86
2023/08/12 11:17:14;;;;;;;;;;;24.80;60.40;;;;;;4142573;28;20332;-85
2023/08/12 11:19:16;;;;;;;;;;;24.80;60.80;;;;;;4147151;28;19914;-86
2023/08/12 11:21:16;;;;;;;;;;;24.80;59.90;;;;;;4155203;28;20433;-85
2023/08/12 11:23:17;;;;;;;;;;;24.80;61.50;;;;;;4156095;28;19910;-85
2023/08/12 11:25:38;;;;;;;;;;;24.80;62.00;;;;;;4142240;28;20002;-85
2023/08/12 11:27:59;;;;;;;;;;;24.90;62.00;;;;;;4158875;28;20004;-85
2023/08/12 11:30:21;;;;;;;;;;;24.90;62.30;;;;;;4138320;28;19924;-86
2023/08/12 11:32:42;;;;;;;;;;;24.90;62.10;;;;;;4154842;28;20000;-85
2023/08/12 11:35:03;;;;;;;;;;;24.90;62.10;;;;;;4144950;28;19921;-85
2023/08/12 11:37:24;;;;;;;;;;;24.90;62.40;;;;;;4158659;28;19917;-84
2023/08/12 11:39:45;;;;;;;;;;;25.00;62.10;;;;;;4155059;28;19926;-85
2023/08/12 11:42:05;;;;;;;;;;;25.00;62.30;;;;;;4155189;28;19909;-85
2023/08/12 11:44:11;;;;;;;;;;;25.00;62.10;;;;;;4142797;28;19910;-86
2023/08/12 11:46:11;;;;;;;;;;;25.10;62.30;;;;;;4156987;28;19913;-86
2023/08/12 11:48:12;;;;;;;;;;;25.10;62.30;;;;;;4144468;28;19924;-86
2023/08/12 11:50:13;;;;;;;;;;;25.10;62.10;;;;;;4155802;28;20100;-86
2023/08/12 11:52:33;;;;;;;;;;;25.10;60.40;;;;;;4157085;28;19913;-86
2023/08/12 11:54:54;;;;;;;;;;;25.20;60.20;;;;;;4156884;28;20004;-86
2023/08/12 11:57:14;;;;;;;;;;;25.10;58.60;;;;;;4158518;28;20322;-86
2023/08/12 11:59:35;;;;;;;;;;;25.10;58.50;;;;;;4155411;28;19917;-86
2023/08/12 12:01:56;;;;;;;;;;;25.10;59.50;;;;;;4158046;28;19914;-86
2023/08/12 12:04:19;;;;;;;;;;;25.00;58.80;;;;;;4152319;28;19921;-85
2023/08/12 12:06:39;;;;;;;;;;;24.90;58.50;;;;;;4153829;28;19941;-84
2023/08/12 12:09:04;;;;;;;;;;;24.80;58.60;;;;;;4153939;28;20298;-84
2023/08/12 12:11:24;;;;;;;;;;;24.80;59.10;;;;;;4153294;28;20005;-85
2023/08/12 12:13:47;;;;;;;;;;;24.60;59.20;;;;;;4154301;28;19913;-84
2023/08/12 12:15:47;;;;;;;;;;;24.50;59.30;;;;;;4155769;28;19917;-85
2023/08/12 12:17:51;;;;;;;;;;;24.40;59.60;;;;;;4143789;28;19925;-85
2023/08/12 12:19:58;;;;;;;;;;;24.30;59.90;;;;;;4138323;28;19913;-85
2023/08/12 12:22:03;;;;;;;;;;;24.20;60.40;;;;;;4153236;28;19920;-85
2023/08/12 12:24:06;;;;;;;;;;;24.10;60.90;;;;;;4142684;28;19910;-84
2023/08/12 12:26:26;;;;;;;;;;;24.00;61.10;;;;;;4157124;28;19967;-85
2023/08/12 12:28:34;;;;;;;;;;;23.90;61.50;;;;;;4139148;28;20395;-85
2023/08/12 12:30:54;;;;;;;;;;;23.80;62.10;;;;;;4153462;28;19918;-85
2023/08/12 12:33:15;;;;;;;;;;;23.70;62.70;;;;;;4151625;28;20024;-85
2023/08/12 12:35:16;;;;;;;;;;;23.70;62.80;;;;;;4141987;28;19929;-85
2023/08/12 12:37:36;;;;;;;;;;;23.60;63.30;;;;;;4143318;28;19914;-85
2023/08/12 12:39:57;;;;;;;;;;;23.50;63.80;;;;;;4154632;28;20031;-85
2023/08/12 12:42:17;;;;;;;;;;;23.40;64.20;;;;;;4154537;28;19944;-84
2023/08/12 12:44:38;;;;;;;;;;;23.30;65.00;;;;;;4154235;28;19965;-86
2023/08/12 12:46:58;;;;;;;;;;;23.30;65.20;;;;;;4151535;28;19929;-85
2023/08/12 12:49:19;;;;;;;;;;;23.20;65.50;;;;;;4155569;28;19921;-85
2023/08/12 12:51:40;;;;;;;;;;;23.10;65.90;;;;;;4140909;28;19913;-85
2023/08/12 12:54:01;;;;;;;;;;;23.00;65.70;;;;;;4139873;28;19918;-85